createdAt,value
2019-03-28T00:02:20.499Z,7.39
2019-03-28T00:04:51.948Z,7.40
2019-03-28T00:07:24.302Z,7.38
2019-03-28T00:09:55.832Z,7.40
2019-03-28T00:12:27.067Z,7.46
2019-03-28T00:14:58.381Z,7.42
2019-03-28T00:17:29.727Z,7.37
2019-03-28T00:20:01.028Z,7.40
2019-03-28T00:22:43.014Z,7.39
2019-03-28T00:25:14.747Z,7.38
2019-03-28T00:27:46.311Z,7.37
2019-03-28T00:30:19.444Z,7.32
2019-03-28T00:32:50.774Z,7.32
2019-03-28T00:35:22.122Z,7.32
2019-03-28T00:37:53.459Z,7.35
2019-03-28T00:40:24.747Z,7.30
2019-03-28T00:42:56.001Z,7.32
2019-03-28T00:45:27.353Z,7.34
2019-03-28T00:47:58.662Z,7.30
2019-03-28T00:50:32.863Z,7.32
2019-03-28T00:53:03.067Z,7.27
2019-03-28T00:55:34.399Z,7.31
2019-03-28T00:58:05.715Z,7.29
2019-03-28T01:00:37.056Z,7.35
2019-03-28T01:03:08.396Z,7.29
2019-03-28T01:05:39.627Z,7.26
2019-03-28T01:08:10.975Z,7.27
2019-03-28T01:10:42.354Z,7.26
2019-03-28T01:13:13.614Z,7.25
2019-03-28T01:15:44.895Z,7.26
2019-03-28T01:18:16.102Z,7.23
2019-03-28T01:20:47.451Z,7.28
2019-03-28T01:23:18.716Z,7.26
2019-03-28T01:25:50.054Z,7.26
2019-03-28T01:28:21.363Z,7.28
2019-03-28T01:30:52.722Z,7.27
2019-03-28T01:33:23.968Z,7.25
2019-03-28T01:35:55.291Z,7.27
2019-03-28T01:38:26.623Z,7.22
2019-03-28T01:40:57.939Z,7.26
2019-03-28T01:43:29.247Z,7.25
2019-03-28T01:46:00.523Z,7.28
2019-03-28T01:48:31.772Z,7.26
2019-03-28T01:51:03.101Z,7.25
2019-03-28T01:53:34.463Z,7.25
2019-03-28T01:56:05.780Z,7.22
2019-03-28T01:58:37.087Z,7.25
2019-03-28T02:01:08.422Z,7.23
2019-03-28T02:03:39.629Z,7.24
2019-03-28T02:06:10.936Z,7.23
2019-03-28T02:08:42.306Z,7.24
2019-03-28T02:11:13.616Z,7.29
2019-03-28T02:13:44.947Z,7.25
2019-03-28T02:16:16.273Z,7.29
2019-03-28T02:18:47.524Z,7.20
2019-03-28T02:21:18.911Z,7.21
2019-03-28T02:23:50.267Z,7.24
2019-03-28T02:26:21.540Z,7.22
2019-03-28T02:28:52.855Z,7.20
2019-03-28T02:31:24.158Z,7.23
2019-03-28T02:33:55.442Z,7.21
2019-03-28T02:36:26.649Z,7.23
2019-03-28T02:38:58.585Z,7.24
2019-03-28T02:41:30.047Z,7.24
2019-03-28T02:44:01.319Z,7.26
2019-03-28T02:46:32.647Z,7.27
2019-03-28T02:49:04.005Z,7.25
2019-03-28T02:51:35.338Z,7.26
2019-03-28T02:54:06.690Z,7.24
2019-03-28T02:56:37.945Z,7.19
2019-03-28T02:59:09.257Z,7.25
2019-03-28T03:01:40.823Z,7.18
2019-03-28T03:04:12.121Z,7.20
2019-03-28T03:06:43.414Z,7.22
2019-03-28T03:14:39.763Z,7.23
2019-03-28T03:17:11.109Z,7.24
2019-03-28T03:19:42.496Z,7.25
2019-03-28T03:22:13.908Z,7.19
2019-03-28T03:24:45.232Z,7.21
2019-03-28T03:27:16.540Z,7.26
2019-03-28T03:29:47.942Z,7.26
2019-03-28T03:32:19.593Z,7.22
2019-03-28T03:34:50.999Z,7.19
2019-03-28T03:37:22.412Z,7.21
2019-03-28T03:39:53.723Z,7.25
2019-03-28T03:42:25.035Z,7.19
2019-03-28T03:44:56.378Z,7.19
2019-03-28T03:47:27.686Z,7.27
2019-03-28T03:49:58.986Z,7.23
2019-03-28T03:52:30.351Z,7.25
2019-03-28T03:55:01.671Z,7.27
2019-03-28T03:57:32.989Z,7.25
2019-03-28T04:00:04.627Z,7.26
2019-03-28T04:02:36.598Z,7.21
2019-03-28T04:05:08.744Z,7.21
2019-03-28T04:07:39.927Z,7.25
2019-03-28T04:10:11.401Z,7.26
2019-03-28T04:12:42.802Z,7.26
2019-03-28T04:15:14.172Z,7.25
2019-03-28T04:17:45.507Z,7.29
2019-03-28T04:20:16.864Z,7.24
2019-03-28T04:22:48.215Z,7.26
2019-03-28T04:25:19.532Z,7.24
2019-03-28T04:27:50.869Z,7.22
2019-03-28T04:30:22.792Z,7.27
2019-03-28T04:32:54.374Z,7.28
2019-03-28T04:35:25.742Z,7.23
2019-03-28T04:37:57.132Z,7.22
2019-03-28T04:40:28.492Z,7.21
2019-03-28T04:42:59.877Z,7.25
2019-03-28T04:45:31.074Z,7.23
2019-03-28T04:48:02.377Z,7.28
2019-03-28T04:50:33.750Z,7.25
2019-03-28T04:53:05.115Z,7.26
2019-03-28T04:55:36.551Z,7.24
2019-03-28T04:58:07.889Z,7.28
2019-03-28T05:00:39.117Z,7.22
2019-03-28T05:03:10.437Z,7.25
2019-03-28T05:05:41.780Z,7.25
2019-03-28T05:08:13.091Z,7.18
2019-03-28T05:10:44.409Z,7.18
2019-03-28T05:13:15.767Z,7.22
2019-03-28T05:15:47.014Z,7.22
2019-03-28T05:18:18.328Z,7.20
2019-03-28T05:20:49.751Z,7.25
2019-03-28T05:23:21.096Z,7.21
2019-03-28T05:25:52.429Z,7.22
2019-03-28T05:28:23.693Z,7.24
2019-03-28T05:30:57.368Z,7.29
2019-03-28T05:33:28.724Z,7.25
2019-03-28T05:36:00.077Z,7.27
2019-03-28T05:38:31.394Z,7.30
2019-03-28T05:41:02.724Z,7.25
2019-03-28T05:43:34.048Z,7.26
2019-03-28T05:46:05.400Z,7.27
2019-03-28T05:48:36.774Z,7.30
2019-03-28T05:51:08.186Z,7.27
2019-03-28T05:53:39.406Z,7.26
2019-03-28T05:56:10.717Z,7.26
2019-03-28T05:58:41.990Z,7.34
2019-03-28T06:01:13.396Z,7.37
2019-03-28T06:03:44.725Z,7.32
2019-03-28T06:06:16.047Z,7.34
2019-03-28T06:08:47.358Z,7.30
2019-03-28T06:11:18.735Z,7.34
2019-03-28T06:13:49.931Z,7.37
2019-03-28T06:16:21.182Z,7.31
2019-03-28T06:18:52.543Z,7.36
2019-03-28T06:21:23.861Z,7.34
2019-03-28T06:23:55.102Z,7.31
2019-03-28T06:26:26.403Z,7.39
2019-03-28T06:28:57.726Z,7.43
2019-03-28T06:31:29.045Z,7.31
2019-03-28T06:34:00.536Z,7.31
2019-03-28T06:36:32.035Z,7.35
2019-03-28T06:39:03.723Z,7.32
2019-03-28T06:41:34.999Z,7.42
2019-03-28T06:44:06.363Z,7.37
2019-03-28T06:46:37.881Z,7.54
2019-03-28T06:49:09.024Z,7.45
2019-03-28T06:51:40.316Z,7.42
2019-03-28T06:54:11.584Z,7.44
2019-03-28T06:56:43.488Z,7.41
2019-03-28T06:59:15.096Z,7.48
2019-03-28T07:01:46.462Z,7.46
2019-03-28T07:04:17.776Z,7.41
2019-03-28T07:06:49.030Z,7.50
2019-03-28T07:09:20.379Z,7.53
2019-03-28T07:11:51.666Z,7.51
2019-03-28T07:14:22.910Z,7.51
2019-03-28T07:16:54.188Z,7.56
2019-03-28T07:19:25.445Z,7.52
2019-03-28T07:21:56.765Z,7.55
2019-03-28T07:24:28.091Z,7.57
2019-03-28T07:26:59.470Z,7.62
2019-03-28T07:29:30.790Z,7.72
2019-03-28T07:32:02.100Z,7.66
2019-03-28T07:34:33.303Z,7.57
2019-03-28T07:37:04.620Z,7.51
2019-03-28T07:39:36.045Z,7.52
2019-03-28T07:42:07.410Z,7.50
2019-03-28T07:44:38.627Z,7.52
2019-03-28T07:47:09.929Z,7.58
2019-03-28T07:49:41.252Z,7.70
2019-03-28T07:52:12.565Z,7.68
2019-03-28T07:54:43.882Z,7.72
2019-03-28T07:57:15.417Z,7.67
2019-03-28T07:59:46.945Z,7.73
2019-03-28T08:02:18.165Z,7.72
2019-03-28T08:04:49.438Z,7.66
2019-03-28T08:07:20.772Z,7.76
2019-03-28T08:09:52.094Z,7.75
2019-03-28T08:12:23.636Z,7.74
2019-03-28T08:14:55.105Z,7.70
2019-03-28T08:17:26.397Z,7.75
2019-03-28T08:19:57.629Z,7.81
2019-03-28T08:22:29.869Z,7.84
2019-03-28T08:25:01.328Z,7.93
2019-03-28T08:27:34.275Z,7.93
2019-03-28T08:30:17.551Z,7.85
2019-03-28T08:32:40.089Z,8.02
2019-03-28T08:35:12.615Z,8.05
2019-03-28T08:37:44.521Z,8.10
2019-03-28T08:40:43.784Z,8.13
2019-03-28T08:43:15.430Z,8.20
2019-03-28T08:45:46.659Z,8.28
2019-03-28T08:48:19.700Z,8.35
2019-03-28T08:50:51.004Z,8.44
2019-03-28T08:53:22.305Z,8.53
2019-03-28T08:55:53.638Z,8.52
2019-03-28T08:58:24.938Z,8.68
2019-03-28T09:00:56.393Z,8.74
2019-03-28T09:03:27.764Z,8.74
2019-03-28T09:05:59.110Z,8.86
2019-03-28T09:08:30.441Z,8.86
2019-03-28T09:11:01.689Z,8.97
2019-03-28T09:13:33.082Z,9.03
2019-03-28T09:16:04.386Z,9.07
2019-03-28T09:18:35.690Z,9.13
2019-03-28T09:21:07.095Z,9.17
2019-03-28T09:23:38.402Z,9.15
2019-03-28T09:26:09.750Z,9.30
2019-03-28T09:28:40.987Z,9.41
2019-03-28T09:31:19.691Z,9.36
2019-03-28T09:33:45.295Z,9.29
2019-03-28T09:36:16.615Z,9.26
2019-03-28T09:38:47.871Z,9.45
2019-03-28T09:41:19.230Z,9.46
2019-03-28T09:43:55.749Z,9.49
2019-03-28T09:46:23.584Z,9.55
2019-03-28T09:48:54.969Z,9.70
2019-03-28T09:51:26.312Z,9.84
2019-03-28T09:53:57.593Z,9.87
2019-03-28T09:56:28.996Z,9.95
2019-03-28T09:59:00.555Z,10.04
2019-03-28T10:01:31.893Z,10.06
2019-03-28T10:04:06.245Z,10.20
2019-03-28T10:06:36.208Z,10.15
2019-03-28T10:09:09.167Z,10.22
2019-03-28T10:11:40.473Z,10.21
2019-03-28T10:14:11.786Z,10.07
2019-03-28T10:16:43.106Z,10.12
2019-03-28T10:19:14.409Z,10.02
2019-03-28T10:21:46.218Z,10.04
2019-03-28T10:24:17.545Z,10.14
2019-03-28T10:26:48.849Z,10.22
2019-03-28T10:29:20.081Z,10.39
2019-03-28T10:31:51.514Z,10.46
2019-03-28T10:34:22.779Z,10.47
2019-03-28T10:36:54.106Z,10.49
2019-03-28T10:39:25.552Z,10.38
2019-03-28T10:41:56.856Z,10.40
2019-03-28T10:44:28.157Z,10.45
2019-03-28T10:46:59.505Z,10.47
2019-03-28T10:49:30.796Z,10.40
2019-03-28T10:52:04.055Z,10.41
2019-03-28T10:54:35.067Z,10.42
2019-03-28T10:57:13.627Z,10.38
2019-03-28T10:59:39.620Z,10.51
2019-03-28T11:02:10.968Z,10.37
2019-03-28T11:04:42.256Z,10.33
2019-03-28T11:07:13.610Z,10.35
2019-03-28T11:09:45.061Z,10.30
2019-03-28T11:12:16.378Z,10.27
2019-03-28T11:14:47.748Z,10.35
2019-03-28T11:17:19.015Z,10.31
2019-03-28T11:19:50.250Z,10.25
2019-03-28T11:22:21.591Z,10.33
2019-03-28T11:24:52.929Z,10.36
2019-03-28T11:27:24.106Z,10.33
2019-03-28T11:29:55.428Z,10.36
2019-03-28T11:32:26.596Z,10.28
2019-03-28T11:34:58.027Z,10.28
2019-03-28T11:37:29.344Z,10.29
2019-03-28T11:40:00.493Z,10.36
2019-03-28T11:42:31.848Z,10.34
2019-03-28T11:45:03.232Z,10.48
2019-03-28T11:47:34.532Z,10.47
2019-03-28T11:50:06.503Z,10.52
2019-03-28T11:52:37.906Z,10.50
2019-03-28T11:55:10.892Z,10.54
2019-03-28T11:57:42.261Z,10.68
2019-03-28T12:00:15.191Z,10.77
2019-03-28T12:02:46.499Z,10.89
2019-03-28T12:05:17.880Z,10.96
2019-03-28T12:07:49.210Z,11.16
2019-03-28T12:10:20.623Z,11.21
2019-03-28T12:12:51.912Z,11.06
2019-03-28T12:15:23.223Z,10.87
2019-03-28T12:17:54.645Z,10.81
2019-03-28T12:20:25.944Z,10.69
2019-03-28T12:22:57.283Z,10.71
2019-03-28T12:25:28.625Z,10.71
2019-03-28T12:28:00.508Z,10.71
2019-03-28T12:30:32.039Z,10.67
2019-03-28T12:33:03.364Z,10.59
2019-03-28T12:35:34.650Z,10.60
2019-03-28T12:38:05.999Z,10.62
2019-03-28T12:40:37.385Z,10.70
2019-03-28T12:43:08.717Z,10.70
2019-03-28T12:45:40.007Z,10.79
2019-03-28T12:48:11.407Z,10.83
2019-03-28T12:50:42.620Z,11.04
2019-03-28T12:53:13.903Z,11.11
2019-03-28T12:55:45.263Z,11.10
2019-03-28T12:58:16.447Z,11.21
2019-03-28T13:00:47.758Z,11.10
2019-03-28T13:03:19.114Z,11.26
2019-03-28T13:05:50.415Z,11.39
2019-03-28T13:08:21.741Z,11.36
2019-03-28T13:10:53.624Z,11.38
2019-03-28T13:13:24.916Z,11.39
2019-03-28T13:15:56.081Z,11.40
2019-03-28T13:18:27.292Z,11.25
2019-03-28T13:21:12.355Z,11.17
2019-03-28T13:23:31.610Z,11.13
2019-03-28T13:26:03.037Z,11.06
2019-03-28T13:28:34.340Z,11.02
2019-03-28T13:31:05.669Z,11.02
2019-03-28T13:33:36.973Z,10.99
2019-03-28T13:36:08.292Z,11.01
2019-03-28T13:38:39.585Z,11.00
2019-03-28T13:41:10.901Z,11.00
2019-03-28T13:43:42.122Z,11.04
2019-03-28T13:46:13.495Z,11.05
2019-03-28T13:48:44.802Z,11.15
2019-03-28T13:51:16.109Z,11.01
2019-03-28T13:53:47.448Z,11.01
2019-03-28T13:56:18.688Z,11.03
2019-03-28T13:58:50.029Z,11.06
2019-03-28T14:01:22.540Z,11.06
2019-03-28T14:03:53.978Z,11.22
2019-03-28T14:06:25.311Z,11.12
2019-03-28T14:08:56.565Z,11.11
2019-03-28T14:11:27.948Z,11.08
2019-03-28T14:13:59.235Z,11.07
2019-03-28T14:16:30.510Z,11.16
2019-03-28T14:19:01.746Z,11.17
2019-03-28T14:21:33.198Z,11.25
2019-03-28T14:24:04.647Z,11.14
2019-03-28T14:26:37.589Z,11.18
2019-03-28T14:29:09.081Z,11.18
2019-03-28T14:31:40.430Z,11.26
2019-03-28T14:34:11.679Z,11.27
2019-03-28T14:36:43.101Z,11.33
2019-03-28T14:39:14.423Z,11.39
2019-03-28T14:41:46.476Z,11.29
2019-03-28T14:44:18.100Z,11.31
2019-03-28T14:46:49.418Z,11.31
2019-03-28T14:49:20.715Z,11.37
2019-03-28T14:51:52.185Z,11.42
2019-03-28T14:54:23.508Z,11.33
2019-03-28T14:56:56.012Z,11.24
2019-03-28T14:59:32.915Z,11.24
2019-03-28T15:02:01.388Z,11.22
2019-03-28T15:04:32.775Z,11.23
2019-03-28T15:07:07.159Z,11.18
2019-03-28T15:09:37.781Z,11.19
2019-03-28T15:12:09.259Z,11.12
2019-03-28T15:14:40.586Z,11.07
2019-03-28T15:17:11.973Z,11.07
2019-03-28T15:19:43.404Z,11.08
2019-03-28T15:22:14.780Z,11.11
2019-03-28T15:24:46.037Z,11.15
2019-03-28T15:27:17.472Z,11.12
2019-03-28T15:29:48.711Z,11.16
2019-03-28T15:32:20.118Z,11.18
2019-03-28T15:34:51.450Z,11.20
2019-03-28T15:37:22.815Z,11.19
2019-03-28T15:39:54.166Z,11.22
2019-03-28T15:42:27.983Z,11.15
2019-03-28T15:44:58.645Z,11.19
2019-03-28T15:47:30.063Z,11.10
2019-03-28T15:50:03.037Z,11.13
2019-03-28T15:52:34.452Z,11.09
2019-03-28T15:55:06.033Z,11.05
2019-03-28T15:57:40.708Z,11.07
2019-03-28T16:00:12.063Z,11.12
2019-03-28T16:02:43.402Z,11.02
2019-03-28T16:05:14.929Z,10.97
2019-03-28T16:07:47.494Z,10.92
2019-03-28T16:10:19.638Z,10.94
2019-03-28T16:12:50.956Z,10.94
2019-03-28T16:15:22.510Z,10.84
2019-03-28T16:17:53.968Z,10.87
2019-03-28T16:20:25.324Z,10.89
2019-03-28T16:22:56.759Z,10.89
2019-03-28T16:25:28.158Z,10.91
2019-03-28T16:27:59.565Z,10.84
2019-03-28T16:30:39.348Z,10.90
2019-03-28T16:33:11.124Z,10.91
2019-03-28T16:35:52.173Z,10.81
2019-03-28T16:38:42.453Z,10.87
2019-03-28T16:41:13.923Z,10.86
2019-03-28T16:43:45.254Z,10.80
2019-03-28T16:46:16.669Z,10.75
2019-03-28T16:48:53.507Z,10.75
2019-03-28T16:51:25.787Z,10.72
2019-03-28T16:53:57.323Z,10.68
2019-03-28T16:56:31.826Z,10.66
2019-03-28T16:59:03.261Z,10.66
2019-03-28T17:01:34.702Z,10.66
2019-03-28T17:04:19.758Z,10.60
2019-03-28T17:06:39.683Z,10.61
2019-03-28T17:09:11.033Z,10.60
2019-03-28T17:11:42.431Z,10.59
2019-03-28T17:14:13.764Z,10.65
2019-03-28T17:16:45.112Z,10.72
2019-03-28T17:19:16.496Z,10.63
2019-03-28T17:21:47.910Z,10.55
2019-03-28T17:24:19.371Z,10.50
2019-03-28T17:26:51.455Z,10.49
2019-03-28T17:29:22.850Z,10.43
2019-03-28T17:31:54.255Z,10.49
2019-03-28T17:34:34.817Z,10.43
2019-03-28T17:36:58.636Z,10.39
2019-03-28T17:39:30.132Z,10.34
2019-03-28T17:42:01.473Z,10.40
2019-03-28T17:44:33.335Z,10.41
2019-03-28T17:47:05.303Z,10.30
2019-03-28T17:49:36.671Z,10.33
2019-03-28T17:52:08.018Z,10.33
2019-03-28T17:54:39.373Z,10.21
2019-03-28T17:57:10.653Z,10.33
2019-03-28T17:59:45.198Z,10.19
2019-03-28T18:02:15.111Z,10.14
2019-03-28T18:04:48.189Z,10.12
2019-03-28T18:07:19.643Z,10.11
2019-03-28T18:09:51.019Z,10.09
2019-03-28T18:12:22.422Z,10.03
2019-03-28T18:14:53.772Z,10.04
2019-03-28T18:17:25.709Z,10.02
2019-03-28T18:19:57.078Z,10.07
2019-03-28T18:22:28.556Z,10.02
2019-03-28T18:24:59.876Z,9.97
2019-03-28T18:27:31.231Z,10.05
2019-03-28T18:30:05.287Z,10.02
2019-03-28T18:32:37.951Z,9.98
2019-03-28T18:35:09.002Z,10.03
2019-03-28T18:37:40.301Z,9.93
2019-03-28T18:40:12.143Z,9.93
2019-03-28T18:42:43.475Z,9.96
2019-03-28T18:45:15.246Z,9.93
2019-03-28T18:47:47.971Z,9.97
2019-03-28T18:50:19.359Z,9.98
2019-03-28T18:52:50.768Z,9.92
2019-03-28T18:55:22.169Z,9.87
2019-03-28T18:57:53.561Z,9.85
2019-03-28T19:00:24.955Z,9.85
2019-03-28T19:02:56.292Z,9.84
2019-03-28T19:05:27.683Z,9.84
2019-03-28T19:07:59.022Z,9.80
2019-03-28T19:10:30.404Z,9.78
2019-03-28T19:13:04.508Z,9.81
2019-03-28T19:15:34.985Z,9.89
2019-03-28T19:18:06.324Z,9.88
2019-03-28T19:20:40.053Z,9.85
2019-03-28T19:23:11.412Z,9.80
2019-03-28T19:25:42.748Z,9.70
2019-03-28T19:28:27.646Z,9.68
2019-03-28T19:30:47.114Z,9.70
2019-03-28T19:33:18.530Z,9.69
2019-03-28T19:35:51.106Z,9.67
2019-03-28T19:38:22.635Z,9.59
2019-03-28T19:40:54.034Z,9.68
2019-03-28T19:43:25.947Z,9.67
2019-03-28T19:45:57.268Z,9.63
2019-03-28T19:48:28.654Z,9.65
2019-03-28T19:51:00.043Z,9.57
2019-03-28T19:53:31.439Z,9.57
2019-03-28T19:56:02.798Z,9.56
2019-03-28T19:58:35.206Z,9.58
2019-03-28T20:01:07.168Z,9.59
2019-03-28T20:03:38.682Z,9.48
2019-03-28T20:06:21.698Z,9.50
2019-03-28T20:08:43.172Z,9.45
2019-03-28T20:11:14.533Z,9.49
2019-03-28T20:13:45.821Z,9.50
2019-03-28T20:16:17.177Z,9.48
2019-03-28T20:18:48.542Z,9.44
2019-03-28T20:21:19.914Z,9.40
2019-03-28T20:23:51.293Z,9.46
2019-03-28T20:26:22.665Z,9.40
2019-03-28T20:28:54.005Z,9.39
2019-03-28T20:31:25.409Z,9.47
2019-03-28T20:33:56.790Z,9.46
2019-03-28T20:36:37.419Z,9.37
2019-03-28T20:39:06.204Z,9.43
2019-03-28T20:41:37.991Z,9.38
2019-03-28T20:44:11.705Z,9.33
2019-03-28T20:46:42.502Z,9.28
2019-03-28T20:49:13.789Z,9.34
2019-03-28T20:51:45.117Z,9.30
2019-03-28T20:54:16.471Z,9.36
2019-03-28T20:56:47.882Z,9.30
2019-03-28T20:59:19.175Z,9.29
2019-03-28T21:01:50.519Z,9.24
2019-03-28T21:04:31.162Z,9.26
2019-03-28T21:06:55.463Z,9.31
2019-03-28T21:09:27.666Z,9.26
2019-03-28T21:12:00.128Z,9.29
2019-03-28T21:14:31.565Z,9.22
2019-03-28T21:17:03.194Z,9.21
2019-03-28T21:19:34.541Z,9.21
2019-03-28T21:22:06.099Z,9.22
2019-03-28T21:24:37.409Z,9.20
2019-03-28T21:27:10.161Z,9.14
2019-03-28T21:29:48.698Z,9.23
2019-03-28T21:32:14.611Z,9.18
2019-03-28T21:34:46.843Z,9.19
2019-03-28T21:37:18.615Z,9.13
2019-03-28T21:39:50.266Z,9.14
2019-03-28T21:42:21.609Z,9.13
2019-03-28T21:44:52.937Z,9.11
2019-03-28T21:47:24.815Z,9.12
2019-03-28T21:49:56.240Z,9.11
2019-03-28T21:52:27.491Z,9.09
2019-03-28T21:55:00.395Z,9.09
2019-03-28T21:57:31.747Z,9.08
2019-03-28T22:00:03.472Z,9.20
2019-03-28T22:02:35.967Z,9.15
2019-03-28T22:05:08.767Z,9.18
2019-03-28T22:07:41.118Z,9.20
2019-03-28T22:10:12.971Z,9.15
2019-03-28T22:12:44.590Z,9.14
2019-03-28T22:15:16.226Z,9.15
2019-03-28T22:17:47.957Z,9.15
2019-03-28T22:20:19.540Z,9.19
2019-03-28T22:22:51.184Z,9.11
2019-03-28T22:25:22.875Z,9.06
2019-03-28T22:27:54.567Z,9.06
2019-03-28T22:30:26.278Z,9.11
2019-03-28T22:32:57.954Z,9.11
2019-03-28T22:35:29.601Z,9.06
2019-03-28T22:38:01.247Z,9.03
2019-03-28T22:40:32.923Z,9.03
2019-03-28T22:43:04.527Z,9.03
2019-03-28T22:45:36.118Z,9.13
2019-03-28T22:48:11.055Z,9.04
2019-03-28T22:50:41.185Z,9.05
2019-03-28T22:53:12.820Z,9.06
2019-03-28T22:55:44.673Z,9.06
2019-03-28T22:58:16.370Z,9.07
2019-03-28T23:00:49.290Z,9.03
2019-03-28T23:03:21.167Z,9.03
2019-03-28T23:05:52.754Z,9.03
2019-03-28T23:08:24.446Z,9.01
2019-03-28T23:10:56.046Z,8.99
2019-03-28T23:13:27.712Z,8.99
2019-03-28T23:15:59.414Z,9.00
2019-03-28T23:18:31.176Z,8.99
2019-03-28T23:21:02.850Z,8.99
2019-03-28T23:23:34.544Z,8.97
2019-03-28T23:26:06.130Z,8.98
2019-03-28T23:28:37.780Z,8.98
2019-03-28T23:31:09.342Z,8.96
2019-03-28T23:33:41.105Z,8.95
2019-03-28T23:36:12.722Z,9.01
2019-03-28T23:38:44.340Z,8.99
2019-03-28T23:41:16.058Z,8.96
2019-03-28T23:43:47.566Z,8.96
2019-03-28T23:46:19.100Z,8.92
2019-03-28T23:48:50.682Z,8.93
2019-03-28T23:51:22.282Z,8.92
2019-03-28T23:53:53.866Z,8.95
2019-03-28T23:56:25.524Z,8.90
2019-03-28T23:58:57.167Z,8.90
